Portsmouth, United Kingdom
Current Conditions -  °F | °C
As of 9:20 AM on Wednesday 28 Jan 2015 (Local Time) from EGHI Reporting Station
Light Rain Light Rain  
Wind Chill: 42°   Ceiling: 1000
Heat Index: 48°   Visibility: 6mi
Dew Point: 46°   Wind: 16mph
Humidity: 93%   Direction: 240°WSW
Pressure: 29.68"   Gusts: NA
Location:  50.8°N, 1.09°W
Report Text: EGHI 280920Z 24014KT 210V270 9000 -RADZ BKN010 09/08 Q1005
Loading
Personal Weather Stations






























Interactive Weather Map New forecast layout! Learn more

10-Day Weather Forecast

Advertisements
Track Severe Weather on mobile